createdAt,value
2022-07-30T00:01:40.061Z,75.12
2022-07-30T00:04:06.909Z,75.43
2022-07-30T00:06:33.556Z,76.01
2022-07-30T00:09:00.223Z,76.05
2022-07-30T00:11:28.107Z,75.91
2022-07-30T00:13:55.629Z,77.06
2022-07-30T00:16:22.609Z,76.94
2022-07-30T00:18:49.227Z,76.96
2022-07-30T00:21:34.587Z,77.01
2022-07-30T00:24:02.822Z,77.51
2022-07-30T00:26:29.544Z,77.66
2022-07-30T00:28:56.586Z,77.67
2022-07-30T00:31:23.312Z,78.75
2022-07-30T00:33:49.934Z,78.77
2022-07-30T00:36:16.675Z,78.99
2022-07-30T00:38:43.705Z,79.22
2022-07-30T00:41:10.342Z,79.67
2022-07-30T00:43:36.994Z,79.45
2022-07-30T00:46:03.850Z,79.31
2022-07-30T00:48:31.673Z,79.69
2022-07-30T00:50:58.335Z,79.58
2022-07-30T00:53:25.750Z,79.98
2022-07-30T00:55:52.764Z,79.43
2022-07-30T00:58:19.408Z,79.72
2022-07-30T01:00:46.034Z,80.03
2022-07-30T01:03:12.726Z,80.15
2022-07-30T01:05:39.342Z,80.02
2022-07-30T01:08:06.041Z,80.70
2022-07-30T01:10:32.937Z,80.18
2022-07-30T01:13:01.990Z,80.92
2022-07-30T01:15:29.177Z,80.93
2022-07-30T01:18:00.182Z,80.91
2022-07-30T01:20:36.685Z,80.44
2022-07-30T01:23:27.913Z,80.55
2022-07-30T01:26:00.886Z,80.42
2022-07-30T01:28:32.618Z,80.58
2022-07-30T01:31:01.296Z,81.13
2022-07-30T01:33:29.463Z,81.32
2022-07-30T01:35:58.341Z,81.01
2022-07-30T01:38:27.543Z,81.52
2022-07-30T01:40:59.134Z,81.45
2022-07-30T01:43:27.458Z,81.85
2022-07-30T01:45:55.205Z,82.23
2022-07-30T01:48:25.139Z,83.03
2022-07-30T01:50:55.121Z,82.72
2022-07-30T01:53:25.879Z,82.49
2022-07-30T01:55:55.124Z,82.43
2022-07-30T01:58:24.892Z,82.22
2022-07-30T02:00:53.391Z,81.53
2022-07-30T02:03:20.127Z,81.51
2022-07-30T02:06:01.814Z,81.83
2022-07-30T02:08:35.015Z,82.35
2022-07-30T02:11:15.909Z,82.70
2022-07-30T02:13:50.714Z,82.32
2022-07-30T02:16:23.686Z,82.10
2022-07-30T02:19:07.606Z,82.55
2022-07-30T02:21:38.818Z,82.25
2022-07-30T02:24:11.284Z,83.42
2022-07-30T02:26:41.001Z,83.71
2022-07-30T02:29:11.393Z,83.54
2022-07-30T02:31:40.465Z,84.27
2022-07-30T02:34:09.129Z,84.45
2022-07-30T02:36:37.705Z,84.51
2022-07-30T02:39:05.775Z,85.05
2022-07-30T02:41:33.405Z,85.05
2022-07-30T02:44:00.889Z,85.12
2022-07-30T02:46:28.685Z,85.21
2022-07-30T02:48:57.610Z,84.90
2022-07-30T02:51:28.557Z,84.63
2022-07-30T02:53:56.700Z,85.17
2022-07-30T02:56:25.353Z,86.11
2022-07-30T02:58:53.248Z,86.24
2022-07-30T03:01:23.133Z,86.71
2022-07-30T03:03:51.421Z,86.74
2022-07-30T03:06:20.064Z,86.76
2022-07-30T03:08:47.079Z,87.42
2022-07-30T03:11:16.542Z,87.93
2022-07-30T03:13:43.263Z,87.37
2022-07-30T03:16:11.254Z,87.36
2022-07-30T03:18:40.797Z,86.72
2022-07-30T03:21:09.781Z,86.59
2022-07-30T03:23:37.738Z,86.53
2022-07-30T03:26:06.894Z,86.23
2022-07-30T03:28:36.906Z,86.30
2022-07-30T03:31:04.870Z,86.18
2022-07-30T03:33:38.925Z,85.91
2022-07-30T03:36:07.031Z,86.38
2022-07-30T03:38:36.240Z,86.12
2022-07-30T03:41:04.416Z,85.69
2022-07-30T03:43:33.566Z,85.20
2022-07-30T03:46:03.630Z,85.10
2022-07-30T03:48:31.341Z,85.15
2022-07-30T03:50:59.797Z,85.06
2022-07-30T03:53:27.675Z,85.12
2022-07-30T03:55:55.096Z,85.28
2022-07-30T03:58:21.999Z,84.91
2022-07-30T04:00:50.684Z,84.96
2022-07-30T04:03:32.427Z,84.59
2022-07-30T04:05:59.770Z,84.10
2022-07-30T04:08:28.513Z,84.37
2022-07-30T04:10:55.616Z,83.98
2022-07-30T04:13:22.253Z,83.81
2022-07-30T04:16:39.424Z,83.97
2022-07-30T04:19:00.489Z,84.13
2022-07-30T04:21:29.905Z,84.14
2022-07-30T04:24:03.029Z,84.30
2022-07-30T04:26:34.545Z,84.32
2022-07-30T04:29:02.651Z,84.36
2022-07-30T04:31:39.825Z,84.38
2022-07-30T04:34:08.498Z,84.31
2022-07-30T04:36:35.974Z,84.08
2022-07-30T04:39:04.007Z,84.19
2022-07-30T04:41:35.350Z,84.11
2022-07-30T04:44:16.411Z,84.47
2022-07-30T04:46:43.139Z,84.35
2022-07-30T04:49:11.605Z,83.81
2022-07-30T04:51:38.861Z,84.12
2022-07-30T04:54:15.209Z,83.42
2022-07-30T04:56:53.752Z,83.51
2022-07-30T04:59:23.949Z,83.39
2022-07-30T05:01:52.357Z,83.14
2022-07-30T05:04:20.447Z,83.15
2022-07-30T05:06:47.801Z,82.63
2022-07-30T05:09:16.106Z,82.83
2022-07-30T05:11:43.181Z,82.95
2022-07-30T05:14:09.791Z,82.86
2022-07-30T05:16:36.523Z,82.63
2022-07-30T05:19:07.891Z,81.93
2022-07-30T05:21:34.681Z,82.25
2022-07-30T05:24:01.362Z,81.92
2022-07-30T05:26:29.437Z,82.05
2022-07-30T05:28:56.956Z,82.46
2022-07-30T05:31:24.795Z,81.92
2022-07-30T05:33:52.338Z,82.07
2022-07-30T05:36:20.314Z,80.47
2022-07-30T05:38:48.046Z,79.43
2022-07-30T05:41:31.584Z,78.07
2022-07-30T05:43:59.281Z,77.33
2022-07-30T05:46:26.156Z,76.92
2022-07-30T05:48:53.083Z,76.16
2022-07-30T05:51:20.894Z,76.32
2022-07-30T05:53:47.756Z,76.60
2022-07-30T05:56:14.453Z,76.21
2022-07-30T05:58:41.039Z,77.18
2022-07-30T06:01:07.964Z,77.31
2022-07-30T06:03:35.024Z,76.37
2022-07-30T06:06:04.583Z,75.48
2022-07-30T06:08:31.348Z,74.70
2022-07-30T06:10:57.930Z,74.10
2022-07-30T06:13:24.723Z,73.04
2022-07-30T06:15:51.388Z,72.44
2022-07-30T06:18:18.100Z,71.97
2022-07-30T06:20:46.364Z,71.57
2022-07-30T06:23:13.511Z,70.59
2022-07-30T06:25:40.205Z,70.50
2022-07-30T06:28:34.727Z,69.41
2022-07-30T06:30:54.067Z,68.44
2022-07-30T06:33:20.754Z,68.02
2022-07-30T06:35:48.977Z,68.35
2022-07-30T06:38:15.711Z,68.32
2022-07-30T06:40:42.368Z,68.28
2022-07-30T06:43:09.327Z,68.14
2022-07-30T06:45:36.014Z,67.62
2022-07-30T06:48:02.730Z,67.46
2022-07-30T06:50:29.413Z,66.07
2022-07-30T06:52:56.025Z,65.16
2022-07-30T06:55:22.793Z,64.23
2022-07-30T06:57:49.665Z,63.99
2022-07-30T07:00:16.470Z,62.75
2022-07-30T07:02:44.347Z,62.27
2022-07-30T07:05:11.432Z,61.58
2022-07-30T07:07:42.221Z,60.12
2022-07-30T07:10:13.142Z,60.16
2022-07-30T07:12:39.875Z,58.69
2022-07-30T07:15:07.244Z,57.97
2022-07-30T07:17:33.854Z,58.17
2022-07-30T07:20:02.546Z,59.51
2022-07-30T07:22:29.643Z,59.96
2022-07-30T07:24:56.537Z,59.92
2022-07-30T07:27:23.591Z,65.37
2022-07-30T07:30:01.862Z,66.95
2022-07-30T07:32:34.148Z,67.07
2022-07-30T07:35:01.139Z,68.03
2022-07-30T07:37:29.303Z,66.37
2022-07-30T07:39:56.004Z,66.23
2022-07-30T07:42:22.744Z,65.19
2022-07-30T07:44:49.440Z,66.40
2022-07-30T07:47:16.001Z,66.21
2022-07-30T07:49:42.632Z,65.62
2022-07-30T07:52:09.236Z,65.50
2022-07-30T07:54:35.930Z,64.50
2022-07-30T07:57:04.497Z,62.05
2022-07-30T07:59:39.706Z,61.20
2022-07-30T08:02:08.131Z,59.57
2022-07-30T08:04:35.799Z,58.23
2022-07-30T08:07:03.106Z,56.50
2022-07-30T08:09:44.005Z,57.75
2022-07-30T08:12:11.362Z,57.05
2022-07-30T08:14:37.981Z,57.25
2022-07-30T08:17:05.016Z,54.67
2022-07-30T08:19:32.115Z,55.23
2022-07-30T08:21:59.702Z,53.39
2022-07-30T08:24:27.030Z,52.31
2022-07-30T08:26:54.001Z,52.29
2022-07-30T08:29:20.650Z,51.81
2022-07-30T08:31:47.351Z,50.97
2022-07-30T08:34:14.137Z,49.53
2022-07-30T08:36:41.772Z,49.26
2022-07-30T08:39:09.061Z,48.06
2022-07-30T08:41:39.358Z,46.65
2022-07-30T08:44:12.849Z,45.74
2022-07-30T08:46:47.485Z,44.55
2022-07-30T08:49:15.954Z,43.78
2022-07-30T08:51:43.467Z,43.67
2022-07-30T08:54:10.320Z,43.28
2022-07-30T08:56:37.169Z,43.04
2022-07-30T08:59:04.327Z,42.94
2022-07-30T09:01:31.057Z,42.50
2022-07-30T09:03:57.822Z,42.64
2022-07-30T09:06:24.697Z,43.76
2022-07-30T09:08:51.317Z,43.95
2022-07-30T09:11:18.261Z,42.15
2022-07-30T09:13:45.097Z,40.59
2022-07-30T09:16:29.166Z,42.15
2022-07-30T09:18:55.976Z,41.83
2022-07-30T09:21:29.311Z,41.29
2022-07-30T09:24:02.154Z,39.75
2022-07-30T09:26:31.267Z,38.63
2022-07-30T09:29:20.493Z,37.60
2022-07-30T09:32:14.218Z,38.38
2022-07-30T09:34:40.845Z,38.80
2022-07-30T09:37:10.595Z,38.88
2022-07-30T09:39:41.577Z,39.36
2022-07-30T09:42:28.796Z,39.53
2022-07-30T09:45:12.725Z,41.72
2022-07-30T09:47:45.082Z,46.72
2022-07-30T09:50:17.796Z,48.33
2022-07-30T09:53:06.957Z,47.20
2022-07-30T09:55:41.862Z,46.72
2022-07-30T09:58:12.937Z,47.52
2022-07-30T10:00:44.485Z,48.35
2022-07-30T10:03:33.842Z,51.73
2022-07-30T10:06:08.938Z,53.24
2022-07-30T10:08:46.462Z,52.98
2022-07-30T10:11:17.309Z,53.19
2022-07-30T10:14:00.286Z,53.57
2022-07-30T10:16:27.769Z,53.19
2022-07-30T10:18:57.862Z,54.87
2022-07-30T10:21:25.756Z,55.83
2022-07-30T10:23:53.860Z,55.02
2022-07-30T10:26:21.413Z,53.49
2022-07-30T10:28:48.664Z,52.08
2022-07-30T10:31:49.218Z,51.61
2022-07-30T10:34:02.839Z,49.46
2022-07-30T10:36:30.881Z,48.48
2022-07-30T10:38:59.624Z,47.76
2022-07-30T10:41:43.252Z,46.76
2022-07-30T10:45:05.322Z,46.02
2022-07-30T10:47:40.380Z,44.47
2022-07-30T10:50:22.343Z,44.45
2022-07-30T10:52:52.206Z,44.15
2022-07-30T10:55:36.539Z,41.86
2022-07-30T10:58:12.382Z,42.78
2022-07-30T11:00:52.861Z,42.93
2022-07-30T11:03:40.617Z,41.28
2022-07-30T11:06:17.035Z,42.24
2022-07-30T11:08:51.858Z,42.64
2022-07-30T11:12:01.798Z,42.10
2022-07-30T11:14:10.147Z,41.84
2022-07-30T11:16:36.962Z,42.97
2022-07-30T11:19:56.105Z,45.13
2022-07-30T11:22:41.422Z,45.46
2022-07-30T11:25:12.673Z,45.84
2022-07-30T11:27:46.602Z,46.05
2022-07-30T11:30:18.880Z,46.67
2022-07-30T11:32:49.712Z,45.56
2022-07-30T11:35:39.950Z,46.46
2022-07-30T11:38:07.424Z,45.51
2022-07-30T11:40:56.825Z,44.75
2022-07-30T11:43:34.850Z,44.79
2022-07-30T11:46:07.560Z,43.42
2022-07-30T11:48:39.998Z,43.33
2022-07-30T11:51:06.841Z,43.09
2022-07-30T11:53:34.721Z,43.13
2022-07-30T11:56:02.892Z,43.03
2022-07-30T11:58:35.535Z,41.80
2022-07-30T12:01:21.919Z,41.99
2022-07-30T12:03:48.601Z,42.20
2022-07-30T12:06:23.538Z,41.65
2022-07-30T12:08:58.260Z,41.99
2022-07-30T12:11:31.618Z,44.71
2022-07-30T12:14:00.116Z,47.37
2022-07-30T12:16:27.608Z,49.88
2022-07-30T12:18:55.021Z,51.40
2022-07-30T12:21:24.657Z,53.39
2022-07-30T12:23:59.878Z,53.24
2022-07-30T12:26:29.583Z,54.38
2022-07-30T12:29:01.916Z,55.75
2022-07-30T12:31:29.262Z,53.71
2022-07-30T12:33:58.281Z,52.39
2022-07-30T12:36:34.295Z,52.39
2022-07-30T12:39:03.894Z,51.74
2022-07-30T12:41:42.602Z,52.12
2022-07-30T12:44:09.367Z,51.17
2022-07-30T12:46:42.271Z,50.88
2022-07-30T12:49:21.372Z,50.03
2022-07-30T12:51:59.732Z,48.49
2022-07-30T12:54:27.539Z,47.61
2022-07-30T12:57:06.035Z,44.80
2022-07-30T12:59:33.870Z,44.01
2022-07-30T13:02:00.971Z,45.94
2022-07-30T13:04:29.041Z,47.77
2022-07-30T13:07:10.644Z,50.28
2022-07-30T13:09:38.394Z,53.15
2022-07-30T13:12:05.520Z,59.48
2022-07-30T13:14:32.397Z,66.00
2022-07-30T13:16:59.222Z,70.22
2022-07-30T13:19:26.810Z,74.93
2022-07-30T13:21:53.615Z,75.04
2022-07-30T13:24:20.702Z,73.64
2022-07-30T13:26:47.882Z,77.27
2022-07-30T13:29:18.141Z,72.78
2022-07-30T13:31:45.022Z,73.27
2022-07-30T13:34:12.664Z,74.37
2022-07-30T13:36:39.661Z,71.24
2022-07-30T13:39:06.353Z,67.73
2022-07-30T13:41:34.130Z,58.96
2022-07-30T13:44:00.692Z,59.83
2022-07-30T13:46:27.328Z,60.28
2022-07-30T13:48:55.002Z,59.61
2022-07-30T13:51:21.725Z,57.57
2022-07-30T13:53:48.354Z,55.95
2022-07-30T13:56:15.499Z,58.20
2022-07-30T13:58:42.598Z,54.61
2022-07-30T14:01:10.264Z,55.26
2022-07-30T14:03:48.761Z,58.18
2022-07-30T14:06:17.280Z,56.50
2022-07-30T14:08:43.893Z,55.18
2022-07-30T14:11:10.747Z,56.16
2022-07-30T14:13:38.023Z,54.94
2022-07-30T14:16:08.186Z,55.87
2022-07-30T14:18:40.683Z,56.45
2022-07-30T14:21:07.311Z,57.46
2022-07-30T14:23:33.954Z,58.96
2022-07-30T14:26:00.987Z,59.19
2022-07-30T14:28:27.580Z,58.75
2022-07-30T14:30:54.374Z,59.17
2022-07-30T14:33:20.976Z,59.52
2022-07-30T14:35:47.613Z,59.85
2022-07-30T14:38:16.978Z,59.51
2022-07-30T14:40:43.587Z,60.67
2022-07-30T14:43:10.186Z,60.68
2022-07-30T14:45:36.885Z,59.26
2022-07-30T14:48:03.659Z,59.14
2022-07-30T14:50:30.772Z,59.14
2022-07-30T14:52:57.467Z,57.69
2022-07-30T14:55:24.203Z,57.83
2022-07-30T14:57:50.976Z,58.19
2022-07-30T15:00:17.724Z,58.07
2022-07-30T15:02:44.396Z,56.65
2022-07-30T15:05:11.092Z,56.87
2022-07-30T15:07:37.802Z,58.59
2022-07-30T15:10:07.235Z,58.22
2022-07-30T15:12:33.971Z,57.83
2022-07-30T15:15:00.639Z,57.60
2022-07-30T15:17:28.487Z,57.79
2022-07-30T15:19:55.205Z,58.09
2022-07-30T15:22:22.087Z,58.50
2022-07-30T15:24:49.020Z,63.72
2022-07-30T15:27:15.724Z,69.83
2022-07-30T15:29:42.844Z,73.17
2022-07-30T15:32:09.482Z,72.88
2022-07-30T15:34:36.202Z,72.96
2022-07-30T15:37:03.892Z,72.02
2022-07-30T15:39:33.193Z,72.49
2022-07-30T15:42:01.944Z,72.51
2022-07-30T15:44:29.219Z,72.58
2022-07-30T15:46:55.827Z,72.73
2022-07-30T15:49:22.724Z,71.78
2022-07-30T15:51:49.460Z,72.44
2022-07-30T15:54:22.816Z,74.23
2022-07-30T15:56:50.801Z,76.53
2022-07-30T15:59:17.858Z,77.08
2022-07-30T16:01:44.686Z,78.47
2022-07-30T16:04:19.356Z,80.87
2022-07-30T16:06:49.972Z,83.02
2022-07-30T16:09:16.799Z,88.90
2022-07-30T16:11:43.527Z,94.41
2022-07-30T16:14:10.859Z,100.00
2022-07-30T16:16:37.495Z,100.00
2022-07-30T16:19:04.455Z,100.00
2022-07-30T16:21:31.142Z,100.00
2022-07-30T16:23:58.882Z,100.00
2022-07-30T16:26:25.468Z,100.00
2022-07-30T16:28:52.092Z,100.00
2022-07-30T16:31:18.844Z,100.00
2022-07-30T16:33:45.760Z,100.00
2022-07-30T16:36:14.297Z,100.00
2022-07-30T16:38:41.228Z,100.00
2022-07-30T16:41:13.398Z,100.00
2022-07-30T16:43:40.907Z,100.00
2022-07-30T16:46:07.570Z,100.00
2022-07-30T16:48:34.204Z,100.00
2022-07-30T16:51:00.825Z,100.00
2022-07-30T16:53:28.454Z,100.00
2022-07-30T16:55:57.016Z,100.00
2022-07-30T16:58:30.528Z,100.00
2022-07-30T17:00:58.893Z,100.00
2022-07-30T17:03:26.079Z,100.00
2022-07-30T17:05:52.860Z,100.00
2022-07-30T17:08:24.635Z,100.00
2022-07-30T17:10:52.871Z,100.00
2022-07-30T17:13:20.576Z,100.00
2022-07-30T17:15:48.035Z,100.00
2022-07-30T17:18:15.827Z,100.00
2022-07-30T17:20:42.993Z,100.00
2022-07-30T17:23:09.663Z,100.00
2022-07-30T17:25:36.290Z,100.00
2022-07-30T17:28:03.182Z,100.00
2022-07-30T17:30:29.913Z,100.00
2022-07-30T17:32:56.601Z,100.00
2022-07-30T17:35:24.785Z,100.00
2022-07-30T17:37:51.757Z,100.00
2022-07-30T17:40:28.924Z,100.00
2022-07-30T17:43:05.898Z,100.00
2022-07-30T17:45:34.691Z,100.00
2022-07-30T17:48:01.836Z,100.00
2022-07-30T17:50:29.212Z,100.00
2022-07-30T17:52:55.914Z,100.00
2022-07-30T17:55:22.531Z,100.00
2022-07-30T17:57:49.193Z,100.00
2022-07-30T18:00:16.230Z,100.00
2022-07-30T18:02:42.978Z,100.00
2022-07-30T18:05:10.703Z,100.00
2022-07-30T18:07:37.484Z,100.00
2022-07-30T18:10:04.868Z,100.00
2022-07-30T18:12:31.526Z,100.00
2022-07-30T18:14:59.087Z,100.00
2022-07-30T18:17:26.384Z,100.00
2022-07-30T18:19:53.212Z,100.00
2022-07-30T18:22:29.543Z,100.00
2022-07-30T18:25:00.853Z,100.00
2022-07-30T18:27:27.967Z,100.00
2022-07-30T18:29:54.619Z,100.00
2022-07-30T18:32:22.057Z,100.00
2022-07-30T18:34:48.649Z,100.00
2022-07-30T18:37:15.257Z,100.00
2022-07-30T18:39:41.904Z,100.00
2022-07-30T18:42:08.539Z,100.00
2022-07-30T18:44:35.213Z,100.00
2022-07-30T18:47:02.050Z,100.00
2022-07-30T18:49:37.512Z,100.00
2022-07-30T18:52:06.392Z,100.00
2022-07-30T18:54:33.495Z,100.00
2022-07-30T18:57:00.579Z,100.00
2022-07-30T18:59:27.226Z,100.00
2022-07-30T19:01:54.025Z,100.00
2022-07-30T19:04:20.770Z,100.00
2022-07-30T19:06:47.867Z,100.00
2022-07-30T19:09:17.713Z,100.00
2022-07-30T19:11:45.936Z,100.00
2022-07-30T19:14:14.165Z,100.00
2022-07-30T19:16:42.798Z,100.00
2022-07-30T19:19:09.797Z,100.00
2022-07-30T19:21:36.435Z,100.00
2022-07-30T19:24:03.858Z,100.00
2022-07-30T19:26:31.721Z,100.00
2022-07-30T19:28:58.706Z,100.00
2022-07-30T19:31:26.141Z,100.00
2022-07-30T19:33:52.892Z,100.00
2022-07-30T19:36:21.191Z,100.00
2022-07-30T19:38:49.003Z,100.00
2022-07-30T19:41:16.401Z,100.00
2022-07-30T19:43:43.154Z,100.00
2022-07-30T19:46:24.193Z,100.00
2022-07-30T19:48:50.950Z,100.00
2022-07-30T19:51:20.969Z,100.00
2022-07-30T19:53:47.966Z,100.00
2022-07-30T19:56:14.630Z,100.00
2022-07-30T19:58:41.565Z,100.00
2022-07-30T20:01:09.831Z,100.00
2022-07-30T20:03:37.103Z,100.00
2022-07-30T20:06:07.155Z,100.00
2022-07-30T20:08:35.213Z,100.00
2022-07-30T20:11:03.388Z,100.00
2022-07-30T20:13:45.245Z,100.00
2022-07-30T20:16:13.111Z,100.00
2022-07-30T20:18:40.150Z,100.00
2022-07-30T20:21:14.007Z,100.00
2022-07-30T20:23:41.498Z,100.00
2022-07-30T20:26:12.655Z,100.00
2022-07-30T20:28:41.083Z,100.00
2022-07-30T20:31:08.434Z,100.00
2022-07-30T20:33:37.774Z,100.00
2022-07-30T20:36:04.937Z,100.00
2022-07-30T20:38:33.796Z,100.00
2022-07-30T20:41:02.718Z,100.00
2022-07-30T20:43:29.646Z,100.00
2022-07-30T20:45:56.353Z,100.00
2022-07-30T20:48:25.646Z,100.00
2022-07-30T20:50:52.562Z,100.00
2022-07-30T20:53:19.897Z,100.00
2022-07-30T20:55:47.474Z,100.00
2022-07-30T20:58:16.484Z,100.00
2022-07-30T21:00:49.324Z,100.00
2022-07-30T21:03:17.075Z,100.00
2022-07-30T21:05:44.189Z,100.00
2022-07-30T21:08:12.183Z,100.00
2022-07-30T21:10:41.002Z,100.00
2022-07-30T21:13:11.420Z,100.00
2022-07-30T21:16:01.629Z,100.00
2022-07-30T21:18:25.264Z,100.00
2022-07-30T21:20:53.241Z,100.00
2022-07-30T21:23:22.527Z,100.00
2022-07-30T21:26:01.139Z,100.00
2022-07-30T21:28:30.161Z,100.00
2022-07-30T21:31:02.480Z,100.00
2022-07-30T21:33:31.259Z,100.00
2022-07-30T21:35:59.078Z,100.00
2022-07-30T21:38:26.723Z,100.00
2022-07-30T21:40:53.590Z,100.00
2022-07-30T21:43:23.045Z,100.00
2022-07-30T21:45:57.674Z,100.00
2022-07-30T21:48:24.907Z,100.00
2022-07-30T21:50:54.514Z,100.00
2022-07-30T21:53:29.860Z,100.00
2022-07-30T21:56:08.528Z,100.00
2022-07-30T21:58:35.128Z,100.00
2022-07-30T22:01:16.254Z,100.00
2022-07-30T22:04:03.080Z,100.00
2022-07-30T22:06:31.013Z,100.00
2022-07-30T22:08:57.613Z,100.00
2022-07-30T22:11:24.294Z,100.00
2022-07-30T22:13:53.959Z,100.00
2022-07-30T22:16:21.851Z,100.00
2022-07-30T22:18:48.869Z,100.00
2022-07-30T22:21:16.539Z,100.00
2022-07-30T22:23:57.585Z,100.00
2022-07-30T22:26:31.507Z,100.00
2022-07-30T22:28:58.663Z,100.00
2022-07-30T22:31:25.235Z,100.00
2022-07-30T22:33:57.621Z,100.00
2022-07-30T22:36:25.269Z,100.00
2022-07-30T22:38:58.853Z,100.00
2022-07-30T22:41:26.067Z,100.00
2022-07-30T22:43:55.827Z,100.00
2022-07-30T22:46:31.223Z,100.00
2022-07-30T22:48:59.167Z,100.00
2022-07-30T22:51:50.258Z,100.00
2022-07-30T22:54:13.971Z,100.00
2022-07-30T22:56:42.141Z,100.00
2022-07-30T22:59:12.826Z,100.00
2022-07-30T23:01:43.292Z,100.00
2022-07-30T23:04:10.406Z,100.00
2022-07-30T23:06:37.318Z,100.00
2022-07-30T23:09:07.741Z,100.00
2022-07-30T23:11:38.825Z,100.00
2022-07-30T23:14:09.748Z,100.00
2022-07-30T23:16:37.420Z,100.00
2022-07-30T23:19:05.306Z,100.00
2022-07-30T23:21:32.707Z,100.00
2022-07-30T23:23:59.765Z,100.00
2022-07-30T23:26:26.436Z,100.00
2022-07-30T23:28:53.131Z,100.00
2022-07-30T23:31:22.882Z,100.00
2022-07-30T23:33:51.800Z,100.00
2022-07-30T23:36:18.463Z,100.00
2022-07-30T23:38:46.303Z,100.00
2022-07-30T23:41:12.935Z,100.00
2022-07-30T23:43:39.825Z,100.00
2022-07-30T23:46:10.959Z,100.00
2022-07-30T23:48:37.920Z,100.00
2022-07-30T23:51:04.688Z,100.00
2022-07-30T23:53:31.291Z,100.00
2022-07-30T23:55:58.140Z,100.00
2022-07-30T23:58:24.748Z,100.00
